Time;durP1;ratioP1;P1;durP2;ratioP2;P2;SDS_P1;SDS_P2;PMS_P1;PMS_P2;Temp;Humidity;BMP_temperature;BMP_pressure;BME280_temperature;BME280_humidity;BME280_pressure;Samples;Min_cycle;Max_cycle;Signal;HPM_P1;HPM_P2
2022/10/22 00:00:34;;;;;;;4.13;1.38;;;;;;;15.74;78.03;100240.19;4213755;28;20044;-70
2022/10/22 00:02:36;;;;;;;2.30;1.40;;;;;;;15.75;77.54;100237.53;4213707;28;20109;-70
2022/10/22 00:04:39;;;;;;;3.40;1.33;;;;;;;15.75;76.87;100247.16;4213621;28;20028;-69
2022/10/22 00:06:44;;;;;;;4.90;1.25;;;;;;;15.86;77.24;100245.34;4205745;28;20040;-69
2022/10/22 00:08:47;;;;;;;5.20;1.35;;;;;;;15.79;77.13;100254.16;4213210;28;20043;-69
2022/10/22 00:10:49;;;;;;;6.60;1.85;;;;;;;15.84;77.17;100260.19;4229112;28;20445;-70
2022/10/22 00:12:52;;;;;;;3.38;1.50;;;;;;;15.71;77.66;100276.03;4212878;28;20071;-69
2022/10/22 00:14:55;;;;;;;3.88;1.30;;;;;;;15.64;76.99;100263.03;4210832;28;20043;-70
2022/10/22 00:17:06;;;;;;;3.42;1.70;;;;;;;15.78;77.43;100255.00;4205403;28;20054;-70
2022/10/22 00:19:13;;;;;;;3.25;1.20;;;;;;;15.82;77.31;100265.47;4211638;28;20040;-70
2022/10/22 00:21:16;;;;;;;3.75;1.55;;;;;;;15.75;77.08;100271.63;4212390;28;20098;-70
2022/10/22 00:23:20;;;;;;;2.80;1.02;;;;;;;15.64;76.96;100271.72;4211998;28;20048;-69
2022/10/22 00:25:24;;;;;;;2.03;1.33;;;;;;;15.72;77.10;100271.66;4213769;28;20105;-71
2022/10/22 00:27:26;;;;;;;6.75;1.30;;;;;;;15.77;76.59;100274.22;4209031;28;20180;-70
2022/10/22 00:29:29;;;;;;;2.47;0.90;;;;;;;15.83;76.04;100276.84;4193175;28;20489;-70
2022/10/22 00:31:32;;;;;;;4.75;1.17;;;;;;;15.88;76.08;100277.63;4213817;28;20059;-70
2022/10/22 00:33:35;;;;;;;2.78;1.38;;;;;;;15.78;75.85;100284.72;4213485;28;20409;-69
2022/10/22 00:35:38;;;;;;;4.05;1.20;;;;;;;15.80;75.76;100287.31;4212874;28;20477;-71
2022/10/22 00:37:41;;;;;;;4.20;1.20;;;;;;;15.77;76.37;100292.56;4204105;28;20083;-71
2022/10/22 00:39:45;;;;;;;7.05;1.23;;;;;;;15.88;75.81;100280.25;4213762;28;20040;-72
2022/10/22 00:41:50;;;;;;;2.85;0.82;;;;;;;15.75;75.52;100278.63;4213801;28;20414;-70
2022/10/22 00:43:54;;;;;;;2.17;1.08;;;;;;;15.65;76.76;100286.59;4213484;28;20047;-71
2022/10/22 00:45:57;;;;;;;4.28;0.90;;;;;;;15.56;76.32;100286.66;4212757;28;20976;-69
2022/10/22 00:48:04;;;;;;;3.55;1.38;;;;;;;15.64;75.92;100287.47;4211997;28;20040;-69
2022/10/22 00:50:11;;;;;;;1.70;1.00;;;;;;;15.67;76.18;100284.81;4197073;28;20040;-70
2022/10/22 00:52:14;;;;;;;3.10;0.95;;;;;;;15.58;76.51;100291.88;4197030;28;20044;-71
2022/10/22 00:54:17;;;;;;;1.88;1.00;;;;;;;15.52;76.24;100292.78;4196705;28;20033;-70
2022/10/22 00:56:22;;;;;;;2.58;1.10;;;;;;;15.56;76.52;100291.03;4208786;28;20064;-69
2022/10/22 00:58:29;;;;;;;2.70;0.95;;;;;;;15.67;76.26;100284.81;4213315;28;20477;-69
2022/10/22 01:00:32;;;;;;;5.82;1.20;;;;;;;15.65;76.12;100283.97;4212437;28;20040;-69
2022/10/22 01:02:35;;;;;;;1.27;0.90;;;;;;;15.65;76.66;100283.97;4212119;28;20435;-70
2022/10/22 01:04:38;;;;;;;4.03;0.88;;;;;;;15.54;76.29;100286.66;4212466;28;20032;-69
2022/10/22 01:06:41;;;;;;;2.90;0.95;;;;;;;15.51;77.08;100293.69;4213149;28;20035;-69
2022/10/22 01:08:50;;;;;;;1.75;0.70;;;;;;;15.50;77.05;100299.81;4212499;28;20032;-69
2022/10/22 01:11:03;;;;;;;2.80;0.80;;;;;;;15.45;76.75;100306.81;4213185;28;20058;-69
2022/10/22 01:13:17;;;;;;;2.58;0.80;;;;;;;15.48;76.94;100306.81;4212990;28;20089;-69
2022/10/22 01:15:26;;;;;;;1.58;0.80;;;;;;;15.46;77.64;100313.81;4211803;28;20036;-71
2022/10/22 01:17:34;;;;;;;3.13;0.90;;;;;;;15.46;76.87;100314.69;4213042;28;20066;-70
2022/10/22 01:19:58;;;;;;;0.88;0.60;;;;;;;15.33;77.29;100321.78;4213541;28;20028;-70
2022/10/22 01:22:08;;;;;;;1.95;0.60;;;;;;;15.28;78.02;100320.94;4213606;28;20074;-69
2022/10/22 01:24:40;;;;;;;5.05;0.93;;;;;;;15.40;77.64;100309.50;4230845;28;20040;-69
2022/10/22 01:27:07;;;;;;;1.55;1.00;;;;;;;15.31;78.30;100310.44;4193331;28;20524;-70
2022/10/22 01:29:15;;;;;;;2.22;1.05;;;;;;;15.43;77.95;100303.38;4210856;28;20033;-70
2022/10/22 01:31:22;;;;;;;0.93;0.57;;;;;;;15.32;78.43;100322.66;4215455;28;20448;-70
2022/10/22 01:33:25;;;;;;;2.55;1.08;;;;;;;15.45;77.67;100310.34;4215007;28;20068;-71
2022/10/22 01:35:31;;;;;;;4.00;0.93;;;;;;;15.38;77.65;100307.78;4213749;28;20040;-70
2022/10/22 01:37:40;;;;;;;3.58;1.00;;;;;;;15.31;78.06;100313.06;4216244;28;20486;-70
2022/10/22 01:39:46;;;;;;;1.00;0.80;;;;;;;15.40;78.12;100312.09;4216310;28;20090;-70
2022/10/22 01:41:49;;;;;;;2.00;0.85;;;;;;;15.33;77.74;100313.03;4215445;28;20105;-69
2022/10/22 01:43:51;;;;;;;1.90;0.90;;;;;;;15.31;78.06;100312.19;4212398;28;20517;-70
2022/10/22 01:45:58;;;;;;;2.20;0.70;;;;;;;15.36;77.95;100313.00;4214608;28;20036;-70
2022/10/22 01:48:13;;;;;;;1.50;0.90;;;;;;;15.28;78.31;100313.06;4215851;28;20039;-70
2022/10/22 01:50:33;;;;;;;2.20;0.80;;;;;;;15.30;78.21;100308.72;4216087;28;20109;-70
2022/10/22 01:52:51;;;;;;;2.38;0.90;;;;;;;15.39;78.50;100301.66;4215203;28;20545;-69
2022/10/22 01:55:03;;;;;;;2.72;0.95;;;;;;;15.28;78.32;100299.97;4204176;28;20505;-69
2022/10/22 01:57:13;;;;;;;2.50;1.00;;;;;;;15.41;77.40;100299.91;4208650;28;20064;-69
2022/10/22 01:59:22;;;;;;;1.63;0.95;;;;;;;15.31;78.05;100299.94;4215592;28;20040;-69
2022/10/22 02:01:33;;;;;;;4.65;0.88;;;;;;;15.30;78.64;100299.97;4213635;28;20048;-69
2022/10/22 02:03:41;;;;;;;1.25;0.75;;;;;;;15.30;78.11;100297.34;4214083;28;20528;-69
2022/10/22 02:05:49;;;;;;;1.60;0.60;;;;;;;15.32;78.31;100298.22;4215626;28;20479;-69
2022/10/22 02:07:55;;;;;;;5.35;1.10;;;;;;;15.36;78.78;100297.28;4215834;28;20101;-69
2022/10/22 02:10:00;;;;;;;3.50;0.70;;;;;;;15.35;78.42;100291.19;4214664;28;20048;-69
2022/10/22 02:12:06;;;;;;;2.80;1.02;;;;;;;15.34;78.24;100286.81;4205891;28;20419;-69
2022/10/22 02:14:11;;;;;;;5.15;0.80;;;;;;;15.34;78.28;100286.81;4215098;28;20048;-69
2022/10/22 02:16:19;;;;;;;2.45;0.68;;;;;;;15.23;78.70;100291.31;4214365;28;20486;-69
2022/10/22 02:18:28;;;;;;;2.40;0.88;;;;;;;15.27;79.53;100293.00;4215661;28;20044;-69
2022/10/22 02:20:33;;;;;;;2.58;1.10;;;;;;;15.18;79.85;100277.38;4215415;28;20083;-70
2022/10/22 02:22:36;;;;;;;4.05;1.02;;;;;;;15.21;79.59;100274.72;4211860;28;20040;-69
2022/10/22 02:24:40;;;;;;;5.30;0.93;;;;;;;15.29;79.43;100270.28;4215245;28;20040;-69
2022/10/22 02:26:52;;;;;;;2.55;0.70;;;;;;;15.29;78.97;100272.91;4215375;28;20118;-69
2022/10/22 02:29:03;;;;;;;4.68;1.13;;;;;;;15.36;79.04;100272.00;4215912;28;20036;-69
2022/10/22 02:31:13;;;;;;;4.63;1.00;;;;;;;15.35;79.11;100272.84;4213884;28;20040;-69
2022/10/22 02:33:20;;;;;;;2.50;0.95;;;;;;;15.42;78.76;100270.19;4210182;28;20489;-68
2022/10/22 02:35:27;;;;;;;2.25;0.65;;;;;;;15.34;78.92;100258.00;4215523;28;20039;-69
2022/10/22 02:37:30;;;;;;;3.45;1.00;;;;;;;15.42;78.56;100254.47;4215380;28;20043;-69
2022/10/22 02:39:35;;;;;;;2.70;0.77;;;;;;;15.32;79.38;100262.41;4208950;28;20043;-70
2022/10/22 02:41:38;;;;;;;2.35;0.85;;;;;;;15.40;78.81;100258.84;4215068;28;20513;-69
2022/10/22 02:43:42;;;;;;;0.80;0.70;;;;;;;15.33;79.25;100261.53;4213747;28;20043;-69
2022/10/22 02:45:45;;;;;;;3.08;0.80;;;;;;;15.35;78.55;100264.16;4215339;28;20044;-69
2022/10/22 02:47:48;;;;;;;3.33;0.98;;;;;;;15.30;79.54;100256.34;4214103;28;20091;-69
2022/10/22 02:49:51;;;;;;;5.03;1.13;;;;;;;15.29;79.57;100253.72;4205920;28;20045;-69
2022/10/22 02:51:56;;;;;;;1.23;0.80;;;;;;;15.30;79.86;100240.63;4215140;28;20089;-69
2022/10/22 02:53:58;;;;;;;1.15;0.75;;;;;;;15.34;79.40;100249.31;4215015;28;20425;-69
2022/10/22 02:56:01;;;;;;;2.95;0.75;;;;;;;15.27;80.05;100256.31;4215170;28;20047;-69
2022/10/22 02:58:07;;;;;;;6.47;0.88;;;;;;;15.29;79.85;100251.97;4215122;28;20123;-69
2022/10/22 03:00:11;;;;;;;1.83;0.80;;;;;;;15.30;80.07;100255.44;4205793;28;20038;-69
2022/10/22 03:02:14;;;;;;;2.38;0.70;;;;;;;15.37;79.15;100238.78;4212122;28;20505;-69
2022/10/22 03:04:17;;;;;;;1.88;0.90;;;;;;;15.38;79.69;100242.31;4214578;28;20115;-69
2022/10/22 03:06:20;;;;;;;1.10;0.60;;;;;;;15.30;79.57;100242.34;4213714;28;20040;-68
2022/10/22 03:08:24;;;;;;;1.05;0.65;;;;;;;15.34;79.47;100237.06;4209383;28;20033;-70
2022/10/22 03:10:27;;;;;;;4.22;1.23;;;;;;;15.36;79.14;100230.06;4211841;28;20055;-71
2022/10/22 03:12:30;;;;;;;4.10;0.80;;;;;;;15.45;78.23;100233.47;4214959;28;20040;-69
2022/10/22 03:14:32;;;;;;;4.47;0.80;;;;;;;15.41;78.60;100231.78;4214620;28;20117;-69
2022/10/22 03:16:35;;;;;;;1.95;0.77;;;;;;;15.26;79.08;100236.28;4213568;28;20147;-69
2022/10/22 03:18:38;;;;;;;3.25;1.00;;;;;;;15.28;78.93;100249.38;4207021;28;20044;-69
2022/10/22 03:20:41;;;;;;;2.20;0.90;;;;;;;15.25;79.42;100258.09;4213618;28;20032;-70
2022/10/22 03:22:44;;;;;;;0.57;0.47;;;;;;;15.15;79.82;100273.00;4214616;28;20138;-69
2022/10/22 03:24:52;;;;;;;1.58;0.73;;;;;;;15.12;80.14;100277.41;4214449;28;20505;-69
2022/10/22 03:26:55;;;;;;;4.20;0.93;;;;;;;15.15;80.11;100256.44;4213998;28;20501;-69
2022/10/22 03:28:59;;;;;;;4.95;1.00;;;;;;;15.21;79.82;100245.91;4206094;28;20063;-71
2022/10/22 03:31:02;;;;;;;3.47;0.82;;;;;;;15.23;80.42;100253.75;4203123;28;20072;-69
2022/10/22 03:33:05;;;;;;;4.63;1.08;;;;;;;15.22;80.50;100262.50;4197720;28;20036;-69
2022/10/22 03:35:08;;;;;;;7.18;0.82;;;;;;;15.10;80.95;100294.88;4205250;28;20036;-69
2022/10/22 03:37:11;;;;;;;2.15;0.70;;;;;;;14.91;81.64;100326.44;4213832;28;20036;-69
2022/10/22 03:39:16;;;;;;;2.72;0.85;;;;;;;14.78;81.69;100335.22;4206015;28;20036;-70
2022/10/22 03:41:20;;;;;;;1.73;0.90;;;;;;;14.81;81.57;100340.44;4214565;28;20081;-70
2022/10/22 03:43:23;;;;;;;2.75;1.00;;;;;;;14.98;80.91;100333.38;4211223;28;20090;-69
2022/10/22 03:45:26;;;;;;;3.38;0.73;;;;;;;15.03;80.53;100335.09;4200016;28;20059;-69
2022/10/22 03:47:29;;;;;;;3.42;0.90;;;;;;;15.05;80.84;100326.31;4214202;28;20035;-69
2022/10/22 03:49:32;;;;;;;3.38;1.10;;;;;;;15.03;80.88;100337.72;4214310;28;20047;-70
2022/10/22 03:51:34;;;;;;;1.13;0.60;;;;;;;15.17;79.89;100323.66;4213088;28;20048;-70
2022/10/22 03:53:37;;;;;;;3.42;0.70;;;;;;;15.12;78.99;100325.41;4212813;28;20040;-70
2022/10/22 03:55:41;;;;;;;2.72;0.90;;;;;;;14.93;78.97;100342.97;4211293;28;20048;-69
2022/10/22 03:57:45;;;;;;;2.08;0.60;;;;;;;14.92;79.11;100338.66;4205266;28;20029;-69
2022/10/22 03:59:49;;;;;;;0.95;0.63;;;;;;;15.01;79.03;100343.81;4214044;28;20044;-69
2022/10/22 04:01:52;;;;;;;2.05;0.47;;;;;;;15.01;78.54;100337.72;4214188;28;20040;-69
2022/10/22 04:03:56;;;;;;;2.00;0.73;;;;;;;15.05;78.29;100334.19;4213891;28;20060;-69
2022/10/22 04:06:01;;;;;;;2.78;0.70;;;;;;;14.88;78.72;100363.09;4210815;28;20405;-69
2022/10/22 04:08:04;;;;;;;1.42;0.63;;;;;;;14.96;78.45;100366.50;4207685;28;20036;-69
2022/10/22 04:10:08;;;;;;;1.15;0.50;;;;;;;14.87;78.37;100377.03;4196100;28;20040;-69
2022/10/22 04:12:10;;;;;;;2.40;0.45;;;;;;;14.86;78.21;100370.06;4212811;28;20465;-69
2022/10/22 04:14:15;;;;;;;5.03;0.93;;;;;;;14.93;78.22;100377.00;4213755;28;20032;-70
2022/10/22 04:16:19;;;;;;;1.85;0.52;;;;;;;14.94;77.32;100378.75;4209077;28;20044;-69
2022/10/22 04:18:23;;;;;;;;;;;;;;;14.84;77.96;100366.59;4210616;28;20115;-69
2022/10/22 04:20:25;;;;;;;0.85;0.57;;;;;;;14.80;78.26;100375.34;4212786;28;19920;-70
2022/10/22 04:22:28;;;;;;;1.00;0.47;;;;;;;14.72;78.31;100383.22;4212648;28;20047;-69
2022/10/22 04:24:32;;;;;;;0.55;0.30;;;;;;;14.64;78.77;100391.09;4212391;28;20055;-70
2022/10/22 04:26:34;;;;;;;1.98;0.70;;;;;;;14.71;78.72;100391.94;4211102;28;20101;-70
2022/10/22 04:28:37;;;;;;;3.53;0.60;;;;;;;14.83;78.23;100397.16;4205409;28;20094;-71
2022/10/22 04:30:41;;;;;;;1.70;0.47;;;;;;;14.86;78.44;100400.59;4213872;28;20108;-69
2022/10/22 04:32:44;;;;;;;2.00;0.43;;;;;;;14.96;77.48;100408.41;4213920;28;20465;-70
2022/10/22 04:34:47;;;;;;;0.90;0.52;;;;;;;14.91;78.32;100404.94;4213446;28;20039;-69
2022/10/22 04:36:50;;;;;;;1.27;0.57;;;;;;;14.93;78.29;100407.56;4211212;28;20044;-69
2022/10/22 04:38:55;;;;;;;1.67;0.68;;;;;;;14.95;78.36;100404.06;4204905;28;20040;-70
2022/10/22 04:40:57;;;;;;;4.32;0.80;;;;;;;14.92;78.32;100411.94;4197211;28;20045;-69
2022/10/22 04:43:00;;;;;;;1.48;0.50;;;;;;;14.93;77.99;100413.66;4195901;28;20051;-69
2022/10/22 04:45:04;;;;;;;3.03;0.50;;;;;;;14.87;78.18;100418.94;4195439;28;20040;-69
2022/10/22 04:47:08;;;;;;;4.43;0.98;;;;;;;14.93;78.10;100418.03;4200182;28;20074;-69
2022/10/22 04:49:10;;;;;;;1.50;0.60;;;;;;;14.89;78.20;100419.78;4213762;28;20040;-69
2022/10/22 04:51:16;;;;;;;8.15;0.60;;;;;;;14.86;78.81;100416.31;4212363;28;20044;-69
2022/10/22 04:53:19;;;;;;;3.17;0.93;;;;;;;14.65;79.07;100419.00;4212140;28;20052;-69
2022/10/22 04:55:22;;;;;;;1.33;0.73;;;;;;;14.68;79.29;100427.72;4208300;28;20102;-69
2022/10/22 04:57:28;;;;;;;5.95;1.05;;;;;;;14.64;79.72;100424.22;4211843;28;20039;-69
2022/10/22 04:59:31;;;;;;;3.15;0.65;;;;;;;14.70;79.86;100425.97;4232804;28;20043;-69
2022/10/22 05:01:36;;;;;;;5.88;1.10;;;;;;;14.74;79.30;100422.47;4217054;28;20068;-69
2022/10/22 05:03:46;;;;;;;1.10;0.60;;;;;;;14.69;79.66;100419.88;4216791;28;20507;-69
2022/10/22 05:05:49;;;;;;;3.33;0.77;;;;;;;14.75;79.07;100424.22;4206582;28;20131;-69
2022/10/22 05:07:52;;;;;;;2.33;0.80;;;;;;;14.69;79.44;100422.50;4216742;28;20036;-69
2022/10/22 05:09:55;;;;;;;3.10;0.88;;;;;;;14.70;79.96;100432.06;4216937;28;20386;-69
2022/10/22 05:11:57;;;;;;;5.10;1.27;;;;;;;14.70;79.89;100436.44;4215683;28;20036;-69
2022/10/22 05:14:02;;;;;;;6.57;1.08;;;;;;;14.73;79.88;100437.28;4207057;28;20040;-69
2022/10/22 05:16:06;;;;;;;4.07;1.20;;;;;;;14.56;79.90;100441.66;4215530;28;20067;-69
2022/10/22 05:18:08;;;;;;;6.68;2.25;;;;;;;14.55;80.07;100432.94;4215841;28;20378;-69
2022/10/22 05:20:13;;;;;;;0.55;0.43;;;;;;;14.55;80.21;100437.31;4210091;28;20036;-69
2022/10/22 05:22:15;;;;;;;1.52;0.55;;;;;;;14.52;80.56;100442.56;4214959;28;20036;-69
2022/10/22 05:24:18;;;;;;;2.42;0.98;;;;;;;14.62;80.07;100437.31;4206394;28;20051;-70
2022/10/22 05:26:22;;;;;;;2.15;0.93;;;;;;;14.59;80.24;100447.78;4215380;28;20127;-70
2022/10/22 05:28:25;;;;;;;0.93;0.80;;;;;;;14.63;79.83;100452.16;4216650;28;20119;-70
2022/10/22 05:30:28;;;;;;;4.15;0.70;;;;;;;14.61;79.57;100446.03;4216618;28;20117;-70
2022/10/22 05:32:30;;;;;;;3.75;0.98;;;;;;;14.65;79.89;100447.78;4215815;28;20118;-70
2022/10/22 05:34:35;;;;;;;2.63;0.93;;;;;;;14.64;79.36;100447.78;4206424;28;20036;-70
2022/10/22 05:36:39;;;;;;;3.53;0.77;;;;;;;14.73;79.25;100445.13;4215230;28;20571;-70
2022/10/22 05:38:42;;;;;;;2.25;1.00;;;;;;;14.70;78.79;100454.75;4216490;28;20123;-69
2022/10/22 05:40:45;;;;;;;3.13;0.88;;;;;;;14.58;79.32;100453.88;4216382;28;20386;-69
2022/10/22 05:42:48;;;;;;;2.90;0.88;;;;;;;14.59;80.00;100458.22;4214515;28;20253;-69
2022/10/22 05:44:51;;;;;;;1.05;0.43;;;;;;;14.53;79.17;100457.38;4207823;28;20036;-69
2022/10/22 05:46:54;;;;;;;2.33;0.90;;;;;;;14.53;80.32;100459.97;4216329;28;20081;-70
2022/10/22 05:48:58;;;;;;;1.65;0.95;;;;;;;14.48;79.70;100462.59;4216274;28;20119;-70
2022/10/22 05:51:04;;;;;;;2.25;0.68;;;;;;;14.46;80.01;100469.59;4214876;28;20076;-70
2022/10/22 05:53:08;;;;;;;8.07;1.10;;;;;;;14.49;79.88;100472.22;4212775;28;20109;-70
2022/10/22 05:55:11;;;;;;;1.45;0.60;;;;;;;14.50;79.89;100473.97;4226226;28;20040;-70
2022/10/22 05:57:14;;;;;;;1.80;0.60;;;;;;;14.56;80.22;100473.94;4211991;28;20470;-70
2022/10/22 05:59:17;;;;;;;4.43;0.70;;;;;;;14.55;79.58;100480.03;4216180;28;20067;-70
2022/10/22 06:01:22;;;;;;;3.40;0.85;;;;;;;14.57;79.55;100482.66;4214345;28;20110;-70
2022/10/22 06:03:25;;;;;;;2.28;0.77;;;;;;;14.64;79.16;100474.81;4216002;28;20337;-70
2022/10/22 06:05:27;;;;;;;3.15;0.80;;;;;;;14.67;78.71;100481.78;4207469;28;20093;-70
2022/10/22 06:07:32;;;;;;;1.70;0.90;;;;;;;14.59;78.96;100484.41;4215099;28;20059;-70
2022/10/22 06:09:36;;;;;;;4.75;1.00;;;;;;;14.53;79.12;100492.25;4215417;28;20061;-70
2022/10/22 06:11:44;;;;;;;0.73;0.63;;;;;;;14.49;79.49;100490.53;4213669;28;20513;-70
2022/10/22 06:13:48;;;;;;;1.40;0.80;;;;;;;14.49;80.07;100493.13;4215335;28;20035;-70
2022/10/22 06:15:52;;;;;;;0.73;0.55;;;;;;;14.47;79.69;100494.88;4197859;28;20037;-70
2022/10/22 06:17:55;;;;;;;3.97;0.75;;;;;;;14.43;79.50;100506.22;4206809;28;20032;-70
2022/10/22 06:19:58;;;;;;;1.80;0.70;;;;;;;14.44;80.11;100502.72;4215993;28;20401;-70
2022/10/22 06:22:01;;;;;;;5.40;3.03;;;;;;;14.47;79.44;100513.19;4211933;28;20042;-71
2022/10/22 06:24:04;;;;;;;3.63;1.65;;;;;;;14.47;79.22;100507.94;4208896;28;20032;-70
2022/10/22 06:26:09;;;;;;;2.17;0.70;;;;;;;14.53;78.93;100507.06;4215704;28;20555;-70
2022/10/22 06:28:12;;;;;;;2.85;0.80;;;;;;;14.43;79.25;100521.91;4214388;28;20043;-71
2022/10/22 06:30:15;;;;;;;3.45;1.52;;;;;;;14.41;79.95;100518.41;4215560;28;20123;-71
2022/10/22 06:32:18;;;;;;;3.28;1.27;;;;;;;14.40;80.09;100527.16;4210559;28;20516;-71
2022/10/22 06:34:21;;;;;;;3.17;1.27;;;;;;;14.39;79.83;100530.63;4202841;28;20494;-70
2022/10/22 06:36:26;;;;;;;1.30;0.60;;;;;;;14.41;79.60;100534.09;4215575;28;20071;-70
2022/10/22 06:38:29;;;;;;;3.55;0.88;;;;;;;14.39;79.69;100535.88;4214230;28;20505;-69
2022/10/22 06:40:33;;;;;;;7.88;1.05;;;;;;;14.38;79.87;100539.34;4214352;28;20153;-69
2022/10/22 06:42:37;;;;;;;3.67;0.80;;;;;;;14.38;80.15;100544.56;4208113;28;20037;-71
2022/10/22 06:44:40;;;;;;;;;;;;;;;14.27;79.88;100545.44;4214245;28;20036;-70
2022/10/22 06:46:43;;;;;;;2.33;1.08;;;;;;;14.34;79.86;100553.28;4215426;28;19920;-70
2022/10/22 06:48:49;;;;;;;3.28;0.98;;;;;;;14.37;79.97;100555.91;4214123;28;20476;-71
2022/10/22 06:50:52;;;;;;;1.58;1.10;;;;;;;14.37;80.04;100555.91;4214946;28;20036;-70
2022/10/22 06:52:54;;;;;;;1.42;0.80;;;;;;;14.38;79.61;100557.66;4207577;28;20031;-70
2022/10/22 06:54:57;;;;;;;1.70;1.00;;;;;;;14.39;80.36;100562.03;4205322;28;20406;-70
2022/10/22 06:57:00;;;;;;;2.10;0.70;;;;;;;14.40;80.05;100574.25;4198450;28;20494;-69
2022/10/22 06:59:04;;;;;;;5.10;0.90;;;;;;;14.39;80.60;100569.88;4198481;28;20039;-70
2022/10/22 07:01:09;;;;;;;5.05;1.15;;;;;;;14.39;80.03;100573.34;4199669;28;20032;-70
2022/10/22 07:03:12;;;;;;;;;;;;;;;14.34;79.72;100576.81;4206794;28;20127;-69
2022/10/22 07:05:15;;;;;;;1.77;1.00;;;;;;;14.44;80.59;100582.09;4213799;28;19920;-70
2022/10/22 07:07:18;;;;;;;2.80;0.88;;;;;;;14.46;80.11;100579.47;4214991;28;20134;-70
2022/10/22 07:09:21;;;;;;;2.17;0.77;;;;;;;14.44;79.89;100583.81;4213005;28;20032;-70
2022/10/22 07:11:25;;;;;;;1.83;0.80;;;;;;;14.47;80.43;100591.66;4206501;28;20036;-69
2022/10/22 07:13:28;;;;;;;2.80;0.60;;;;;;;14.47;80.08;100589.03;4214323;28;20075;-69
2022/10/22 07:15:32;;;;;;;1.77;0.65;;;;;;;14.45;80.47;100586.41;4214564;28;20444;-70
2022/10/22 07:17:35;;;;;;;1.80;0.75;;;;;;;14.44;80.53;100591.66;4214552;28;20101;-69
2022/10/22 07:19:38;;;;;;;2.22;0.85;;;;;;;14.53;80.82;100585.56;4208258;28;20043;-70
2022/10/22 07:21:43;;;;;;;0.75;0.60;;;;;;;14.56;80.75;100589.06;4214115;28;20040;-69
2022/10/22 07:23:46;;;;;;;2.42;0.90;;;;;;;14.60;80.63;100585.56;4214241;28;20051;-69
2022/10/22 07:25:49;;;;;;;2.85;0.80;;;;;;;14.65;80.04;100590.84;4214751;28;20040;-70
2022/10/22 07:27:52;;;;;;;1.48;0.55;;;;;;;14.74;79.90;100589.94;4213396;28;20115;-70
2022/10/22 07:29:55;;;;;;;0.90;0.60;;;;;;;14.73;79.92;100599.53;4204730;28;20039;-70
2022/10/22 07:31:59;;;;;;;0.55;0.55;;;;;;;14.72;80.11;100602.16;4207327;28;20047;-70
2022/10/22 07:34:02;;;;;;;1.75;0.60;;;;;;;14.78;80.25;100604.78;4214527;28;20075;-69
2022/10/22 07:36:08;;;;;;;3.25;0.73;;;;;;;14.86;79.62;100612.63;4214313;28;20070;-71
2022/10/22 07:38:11;;;;;;;2.75;0.73;;;;;;;14.89;79.45;100616.09;4210640;28;20070;-70
2022/10/22 07:40:14;;;;;;;2.30;0.70;;;;;;;14.93;79.84;100611.75;4209466;28;20032;-70
2022/10/22 07:42:17;;;;;;;3.35;1.30;;;;;;;14.95;79.20;100617.84;4214484;28;20467;-70
2022/10/22 07:44:19;;;;;;;1.05;0.45;;;;;;;15.03;79.40;100623.09;4212943;28;20040;-70
2022/10/22 07:46:23;;;;;;;0.93;0.50;;;;;;;15.06;79.47;100621.31;4214504;28;20040;-69
2022/10/22 07:48:28;;;;;;;1.70;1.00;;;;;;;15.07;78.84;100619.56;4190490;28;20110;-70
2022/10/22 07:50:49;;;;;;;1.45;0.70;;;;;;;15.09;78.93;100630.91;4205873;28;20086;-69
2022/10/22 07:52:52;;;;;;;3.05;1.00;;;;;;;15.09;78.87;100623.94;4197457;28;20040;-70
2022/10/22 07:54:59;;;;;;;5.43;1.60;;;;;;;15.14;78.74;100627.44;4197214;28;20067;-70
2022/10/22 07:57:02;;;;;;;2.00;1.38;;;;;;;15.12;78.35;100623.06;4196363;28;20055;-70
2022/10/22 07:59:05;;;;;;;3.15;0.93;;;;;;;15.11;78.91;100626.53;4204531;28;20419;-70
2022/10/22 08:01:07;;;;;;;5.13;1.33;;;;;;;15.14;78.82;100630.03;4207194;28;20041;-73
2022/10/22 08:03:11;;;;;;;2.22;1.05;;;;;;;15.13;79.20;100630.06;4213515;28;20036;-64
2022/10/22 08:05:16;;;;;;;2.43;1.13;;;;;;;15.12;79.29;100625.69;4211961;28;20505;-69
2022/10/22 08:07:19;;;;;;;4.57;1.98;;;;;;;15.24;79.06;100628.25;4209200;28;20074;-70
2022/10/22 08:09:21;;;;;;;2.20;1.55;;;;;;;15.17;78.59;100626.53;4205436;28;20054;-70
2022/10/22 08:11:25;;;;;;;2.78;1.40;;;;;;;15.19;79.36;100630.03;4212843;28;20077;-70
2022/10/22 08:13:29;;;;;;;2.88;1.05;;;;;;;15.18;79.16;100615.19;4213737;28;20044;-70
2022/10/22 08:15:33;;;;;;;2.42;1.25;;;;;;;15.18;79.27;100623.91;4213493;28;20609;-69
2022/10/22 08:17:36;;;;;;;1.55;1.10;;;;;;;15.24;79.45;100625.63;4204686;28;20500;-69
2022/10/22 08:19:38;;;;;;;2.95;1.27;;;;;;;15.30;78.84;100636.13;4204164;28;20136;-68
2022/10/22 08:21:43;;;;;;;2.35;1.10;;;;;;;15.34;79.23;100635.22;4207419;28;20594;-67
2022/10/22 08:23:46;;;;;;;2.58;0.95;;;;;;;15.33;79.05;100641.34;4205411;28;20482;-67
2022/10/22 08:25:49;;;;;;;2.25;0.85;;;;;;;15.45;78.70;100637.81;4213479;28;20101;-68
2022/10/22 08:27:52;;;;;;;7.93;1.00;;;;;;;15.42;78.44;100637.84;4208518;28;20033;-62
2022/10/22 08:29:54;;;;;;;2.42;1.02;;;;;;;15.41;78.86;100643.94;4204600;28;20040;-65
2022/10/22 08:31:57;;;;;;;3.22;0.88;;;;;;;15.41;78.62;100651.81;4213317;28;20374;-62
2022/10/22 08:34:00;;;;;;;2.38;0.93;;;;;;;15.47;78.56;100651.78;4212931;28;20401;-60
2022/10/22 08:36:04;;;;;;;1.45;0.57;;;;;;;15.51;78.05;100653.50;4212155;28;20129;-61
2022/10/22 08:38:08;;;;;;;2.50;0.68;;;;;;;15.52;78.10;100657.00;4212188;28;20048;-62
2022/10/22 08:40:19;;;;;;;2.25;0.57;;;;;;;15.42;78.09;100652.66;4206139;28;20041;-63
2022/10/22 08:42:45;;;;;;;1.58;0.75;;;;;;;15.44;78.28;100661.41;4212494;28;20036;-68
2022/10/22 08:45:03;;;;;;;4.70;1.00;;;;;;;15.34;77.67;100661.41;4212710;28;20028;-62
2022/10/22 08:47:19;;;;;;;0.88;0.60;;;;;;;15.45;77.23;100657.88;4213560;28;20054;-62
2022/10/22 08:49:27;;;;;;;1.75;0.60;;;;;;;15.45;77.84;100658.78;4211404;28;20039;-66
2022/10/22 08:51:32;;;;;;;1.52;1.05;;;;;;;15.53;77.77;100667.47;4212499;28;20085;-66
2022/10/22 08:53:45;;;;;;;0.60;0.60;;;;;;;15.50;77.59;100661.38;4208053;28;20115;-66
2022/10/22 08:55:52;;;;;;;1.20;0.60;;;;;;;15.53;77.32;100675.34;4203990;28;20398;-63
2022/10/22 08:58:00;;;;;;;1.40;0.70;;;;;;;15.68;77.18;100671.81;4202928;28;20040;-63
2022/10/22 09:00:06;;;;;;;2.38;0.77;;;;;;;15.70;77.31;100675.28;4207394;28;20093;-63
2022/10/22 09:02:30;;;;;;;1.95;0.60;;;;;;;15.83;76.74;100675.28;4205115;28;20051;-63
2022/10/22 09:04:40;;;;;;;0.90;0.60;;;;;;;15.84;76.40;100675.28;4206445;28;20097;-63
2022/10/22 09:06:44;;;;;;;1.85;0.50;;;;;;;15.83;76.24;100676.16;4209220;28;20048;-64
2022/10/22 09:08:52;;;;;;;0.93;0.63;;;;;;;15.89;75.41;100677.88;4201883;28;20040;-64
2022/10/22 09:11:02;;;;;;;2.97;0.80;;;;;;;15.94;75.86;100678.72;4187974;28;20053;-63
2022/10/22 09:13:05;;;;;;;0.40;0.35;;;;;;;15.97;75.74;100686.56;4207483;28;20084;-64
2022/10/22 09:15:12;;;;;;;0.50;0.50;;;;;;;16.14;75.70;100688.25;4210907;28;20040;-64
2022/10/22 09:17:25;;;;;;;3.75;0.80;;;;;;;16.32;74.41;100688.13;4208874;28;20046;-64
2022/10/22 09:19:35;;;;;;;0.93;0.40;;;;;;;16.37;74.64;100683.75;4208779;28;20151;-64
2022/10/22 09:21:46;;;;;;;2.25;0.68;;;;;;;16.50;73.83;100688.91;4209959;28;20028;-64
2022/10/22 09:24:00;;;;;;;2.42;0.55;;;;;;;16.48;74.17;100690.69;4211659;28;20490;-64
2022/10/22 09:26:04;;;;;;;2.05;0.45;;;;;;;16.59;73.82;100678.38;4203619;28;20040;-64
2022/10/22 09:28:09;;;;;;;1.70;0.40;;;;;;;16.63;73.92;100690.59;4203953;28;20065;-63
2022/10/22 09:30:15;;;;;;;0.32;0.30;;;;;;;16.64;74.06;100691.44;4206622;28;20494;-63
2022/10/22 09:32:18;;;;;;;2.65;0.80;;;;;;;16.78;73.38;100688.72;4205015;28;20130;-63
2022/10/22 09:34:22;;;;;;;3.42;0.70;;;;;;;17.03;72.24;100682.41;4202964;28;20040;-64
2022/10/22 09:36:29;;;;;;;2.20;0.67;;;;;;;17.06;72.48;100690.25;4220756;28;20497;-64
2022/10/22 09:38:39;;;;;;;1.70;0.60;;;;;;;17.21;70.90;100678.72;4209387;28;20039;-64
2022/10/22 09:40:46;;;;;;;2.05;0.60;;;;;;;17.28;70.39;100688.31;4201682;28;20044;-63
2022/10/22 09:42:54;;;;;;;2.33;0.80;;;;;;;17.17;71.54;100686.66;4206961;28;20047;-63